Monday, December 16, 2019, 7:23 AM EST
Back to Local

KRIC, Richmond International Airport

Location: Sandston, VA, United States Lat: 37.517
Local Time: 7:23 AM EST (12:23 GMT) Lon: -77.317
Time Zone: US/Eastern Elev: 167 ft

Show me the last for .
Show Decoded

2019-12-16 06:54 METAR KRIC 161154Z 09006KT 10SM BKN040 BKN080 04/M01 A3021 RMK AO2 RAB13E21
                 SLP236 P0000 60000 T00441006 10056 20039 53003 =
2019-12-16 05:54 METAR KRIC 161054Z 12006KT 10SM FEW085 BKN110 OVC140 04/M01 A3020 RMK AO2 SLP231
                 T00391006 =
2019-12-16 04:54 METAR KRIC 160954Z 11006KT 10SM FEW120 BKN150 OVC190 04/M01 A3019 RMK AO2 SLP229
                 T00391011 =
2019-12-16 03:54 METAR KRIC 160854Z 08006KT 10SM SCT140 BKN210 04/M01 A3020 RMK AO2 SLP233
                 T00441011 50002 =
2019-12-16 02:54 METAR KRIC 160754Z 08006KT 10SM BKN080 BKN120 BKN140 04/M02 A3022 RMK AO2 SLP238
                 T00441017 =
2019-12-16 01:54 METAR KRIC 160654Z 07008KT 10SM BKN085 BKN150 OVC210 06/M02 A3022 RMK AO2 SLP238
                 T00561017 =
2019-12-16 00:54 METAR KRIC 160554Z 04005KT 10SM BKN095 06/M01 A3020 RMK AO2 SLP230 T00561006
                 10094 20050 53004 =
2019-12-15 23:54 METAR KRIC 160454Z 07006KT 10SM SCT100 06/M01 A3017 RMK AO2 SLP222 T00561011
                 401390039 =
2019-12-15 22:54 METAR KRIC 160354Z 04009KT 10SM OVC100 07/00 A3018 RMK AO2 SLP224 T00670000 =
2019-12-15 21:54 METAR KRIC 160254Z 36011KT 10SM BKN120 07/02 A3018 RMK AO2 PRESRR SLP227
                 T00670022 53023 =
2019-12-15 20:54 METAR KRIC 160154Z 23004KT 10SM SCT130 05/02 A3015 RMK AO2 SLP216 T00500022 =
2019-12-15 19:54 METAR KRIC 160054Z 22003KT 10SM FEW100 07/02 A3013 RMK AO2 SLP209 T00720017 =
2019-12-15 18:54 METAR KRIC 152354Z 24006KT 10SM FEW100 09/01 A3012 RMK AO2 SLP204 T00890011
                 10139 20072 52024 =
2019-12-15 17:54 METAR KRIC 152254Z 19006KT 10SM FEW060 08/01 A3009 RMK AO2 SLP196 T00780011 =
2019-12-15 16:54 METAR KRIC 152154Z 24007KT 10SM FEW060 12/01 A3007 RMK AO2 SLP186 T01170006 =
2019-12-15 15:54 METAR KRIC 152054Z 24009KT 10SM FEW060 13/01 A3004 RMK AO2 SLP178 T01330006
                 53016 =
2019-12-15 14:54 METAR KRIC 151954Z 26009KT 10SM FEW060 14/01 A3002 RMK AO2 SLP169 T01390006 =
2019-12-15 13:54 METAR KRIC 151854Z 26014G18KT 10SM FEW055 13/00 A3000 RMK AO2 SLP165 T01330000 =
2019-12-15 12:54 METAR KRIC 151754Z 25012KT 10SM FEW050 13/01 A3000 RMK AO2 SLP163 T01330006
                 10133 20039 58003 =
2019-12-15 11:54 METAR KRIC 151654Z 27010KT 10SM FEW050 13/02 A3000 RMK AO2 SLP164 T01280017 =
2019-12-15 10:54 METAR KRIC 151554Z 25014KT 10SM FEW055 FEW220 12/02 A3002 RMK AO2 SLP172
                 T01170017 =
2019-12-15 09:54 METAR KRIC 151454Z 23010KT 10SM FEW050 SCT220 09/02 A3001 RMK AO2 SLP167
                 T00940022 53029 =
2019-12-15 08:54 METAR KRIC 151354Z 24010KT 10SM FEW200 07/02 A2998 RMK AO2 SLP158 T00670017 =
2019-12-15 07:54 METAR KRIC 151254Z 21009KT 10SM CLR 04/01 A2994 RMK AO2 SLP144 T00440011 $ =

Support USWX by starting your Amazon purchase here.